Overview Statistics Trail Chart Weather Telemetry Raw packets
 

This is the latest recevied weather packets stored in our database for station/object KL4TQ. If no packets are shown the sender has not sent any weather packets the latest 10 day(s).

<< 76 77 78 79 80 81 82 >>
Time Temp. Humidity Pressure Rain* Wind** Luminosity Snow
1777145769 6.67° C 64% 857 hPa 0 mm - 477 W/m² -
1777145468 6.67° C 65% 857 hPa 0 mm - 300 W/m² -
1777145168 6.67° C 67% 857 hPa 0 mm - 456 W/m² -
1777144869 7.22° C 64% 857 hPa 0 mm - 641 W/m² -
1777144568 6.67° C 65% 857 hPa 0 mm - 763 W/m² -
1777144269 6.11° C 67% 857 hPa 0 mm - 666 W/m² -
1777143968 6.67° C 66% 857 hPa 0 mm - 294 W/m² -
1777143676 6.67° C 66% 857 hPa 0 mm - 254 W/m² -
1777143369 7.22° C 64% 857 hPa 0 mm - 220 W/m² -
1777143068 7.22° C 64% 857 hPa 0 mm - 610 W/m² -
1777142768 7.22° C 63% 857 hPa 0 mm - 596 W/m² -
1777142468 7.22° C 65% 857 hPa 0 mm - 278 W/m² -
1777142168 6.67° C 65% 857 hPa 0 mm - 499 W/m² -
1777141868 6.67° C 66% 857 hPa 0 mm - 491 W/m² -
1777141568 6.67° C 67% 857 hPa 0 mm - 545 W/m² -
1777141268 6.67° C 67% 857 hPa 0 mm - 491 W/m² -
1777140970 6.67° C 66% 857 hPa 0 mm - 511 W/m² -
1777140668 6.11° C 67% 857 hPa 0 mm - 488 W/m² -
1777140368 6.11° C 68% 857 hPa 0 mm - 471 W/m² -
1777140068 6.11° C 68% 857 hPa 0 mm - 348 W/m² -
1777139768 6.11° C 67% 857 hPa 0 mm - 453 W/m² -
1777139469 5.56° C 68% 857 hPa 0 mm - 433 W/m² -
1777139168 5.56° C 69% 857 hPa 0 mm - 430 W/m² -
1777138868 5° C 70% 857 hPa 0 mm - 273 W/m² -
1777138569 5° C 71% 857 hPa 0 mm - 392 W/m² -

* Rain latest hour (hover to see other rain measurements)
** Current wind speed in m/s (hover to see current wind gust speed)